createdAt,value
2022-09-10T00:01:38.251Z,100242.84
2022-09-10T00:04:15.639Z,100239.28
2022-09-10T00:06:44.874Z,100243.09
2022-09-10T00:09:14.935Z,100234.47
2022-09-10T00:11:43.280Z,100233.50
2022-09-10T00:14:17.372Z,100235.88
2022-09-10T00:16:45.369Z,100237.56
2022-09-10T00:19:14.876Z,100240.28
2022-09-10T00:21:45.377Z,100235.00
2022-09-10T00:29:00.188Z,100241.69
2022-09-10T00:31:31.904Z,100245.66
2022-09-10T00:34:04.186Z,100249.22
2022-09-10T00:36:38.451Z,100242.41
2022-09-10T00:39:15.239Z,100246.19
2022-09-10T00:41:47.424Z,100248.81
2022-09-10T00:44:41.392Z,100243.31
2022-09-10T00:47:23.704Z,100235.34
2022-09-10T00:50:29.153Z,100241.66
2022-09-10T00:53:07.337Z,100232.06
2022-09-10T00:55:38.322Z,100236.41
2022-09-10T00:58:10.361Z,100235.44
2022-09-10T01:00:41.454Z,100228.22
2022-09-10T01:03:32.862Z,100222.75
2022-09-10T01:06:03.150Z,100231.56
2022-09-10T01:08:32.098Z,100230.59
2022-09-10T01:11:48.209Z,100229.84
2022-09-10T01:14:21.151Z,100237.81
2022-09-10T01:17:45.850Z,100224.22
2022-09-10T01:20:40.492Z,100225.31
2022-09-10T01:23:41.674Z,100222.50
2022-09-10T01:26:49.373Z,100225.44
2022-09-10T01:30:04.031Z,100228.13
2022-09-10T01:33:17.960Z,100223.91
2022-09-10T01:35:56.168Z,100228.63
2022-09-10T01:38:32.457Z,100226.06
2022-09-10T01:41:02.858Z,100229.53
2022-09-10T01:43:36.122Z,100228.66
2022-09-10T01:46:44.807Z,100231.13
2022-09-10T01:49:32.145Z,100231.25
2022-09-10T01:52:38.934Z,100229.72
2022-09-10T01:55:17.894Z,100221.66
2022-09-10T01:58:23.213Z,100226.16
2022-09-10T02:01:29.472Z,100235.44
2022-09-10T02:04:06.882Z,100219.72
2022-09-10T02:06:40.214Z,100225.94
2022-09-10T02:09:12.692Z,100223.91
2022-09-10T02:11:54.193Z,100235.34
2022-09-10T02:14:43.568Z,100233.06
2022-09-10T02:17:20.896Z,100237.25
2022-09-10T02:19:52.443Z,100231.03
2022-09-10T02:22:23.977Z,100240.81
2022-09-10T02:24:52.808Z,100234.69
2022-09-10T02:27:21.376Z,100230.50
2022-09-10T02:29:49.683Z,100226.06
2022-09-10T02:32:18.996Z,100226.72
2022-09-10T02:34:48.149Z,100226.50
2022-09-10T02:37:16.900Z,100224.75
2022-09-10T02:39:45.510Z,100230.06
2022-09-10T02:42:17.168Z,100216.69
2022-09-10T02:44:48.174Z,100227.25
2022-09-10T02:47:18.363Z,100228.22
2022-09-10T02:49:46.034Z,100225.31
2022-09-10T02:52:14.952Z,100230.28
2022-09-10T02:54:43.017Z,100232.97
2022-09-10T02:57:12.504Z,100220.47
2022-09-10T02:59:40.705Z,100215.81
2022-09-10T03:02:10.066Z,100220.16
2022-09-10T03:04:40.822Z,100213.66
2022-09-10T03:07:08.719Z,100211.94
2022-09-10T03:09:37.167Z,100222.72
2022-09-10T03:12:07.043Z,100211.19
2022-09-10T03:14:35.036Z,100218.06
2022-09-10T03:17:04.031Z,100209.13
2022-09-10T03:19:35.206Z,100208.28
2022-09-10T03:22:04.585Z,100207.41
2022-09-10T03:24:37.816Z,100210.13
2022-09-10T03:27:08.520Z,100218.31
2022-09-10T03:29:36.968Z,100213.00
2022-09-10T03:32:06.925Z,100200.09
2022-09-10T03:34:35.263Z,100208.81
2022-09-10T03:37:03.540Z,100209.78
2022-09-10T03:39:32.680Z,100221.66
2022-09-10T03:42:00.484Z,100222.50
2022-09-10T03:44:30.583Z,100218.09
2022-09-10T03:46:59.109Z,100204.72
2022-09-10T03:49:30.595Z,100212.59
2022-09-10T03:52:00.517Z,100201.41
2022-09-10T03:54:29.263Z,100217.25
2022-09-10T03:56:57.312Z,100211.09
2022-09-10T03:59:25.098Z,100211.09
2022-09-10T04:01:59.255Z,100217.25
2022-09-10T04:04:27.569Z,100218.19
2022-09-10T04:06:56.465Z,100209.03
2022-09-10T04:09:24.427Z,100211.75
2022-09-10T04:11:54.640Z,100218.84
2022-09-10T04:14:26.993Z,100215.28
2022-09-10T04:16:56.256Z,100222.41
2022-09-10T04:19:25.120Z,100232.31
2022-09-10T04:21:53.340Z,100219.06
2022-09-10T04:24:22.345Z,100227.13
2022-09-10T04:26:51.132Z,100225.09
2022-09-10T04:29:20.040Z,100231.25
2022-09-10T04:31:48.427Z,100225.88
2022-09-10T04:34:19.723Z,100225.75
2022-09-10T04:36:47.817Z,100220.47
2022-09-10T04:39:18.402Z,100219.50
2022-09-10T04:41:48.797Z,100232.84
2022-09-10T04:44:20.376Z,100235.53
2022-09-10T04:46:49.075Z,100239.22
2022-09-10T04:49:18.321Z,100236.53
2022-09-10T04:51:46.888Z,100238.22
2022-09-10T04:54:16.786Z,100244.72
2022-09-10T04:56:47.971Z,100243.63
2022-09-10T04:59:16.728Z,100241.13
2022-09-10T05:01:51.699Z,100249.53
2022-09-10T05:04:19.876Z,100246.97
2022-09-10T05:06:50.527Z,100250.31
2022-09-10T05:09:19.361Z,100235.97
2022-09-10T05:11:50.110Z,100243.31
2022-09-10T05:14:21.084Z,100242.25
2022-09-10T05:16:50.145Z,100244.69
2022-09-10T05:19:26.486Z,100245.69
2022-09-10T05:22:00.496Z,100248.50
2022-09-10T05:24:29.139Z,100250.09
2022-09-10T05:26:59.503Z,100249.22
2022-09-10T05:29:27.838Z,100253.75
2022-09-10T05:31:55.856Z,100248.38
2022-09-10T05:34:26.124Z,100243.84
2022-09-10T05:36:55.853Z,100247.63
2022-09-10T05:39:24.196Z,100244.28
2022-09-10T05:41:53.093Z,100256.44
2022-09-10T05:44:22.872Z,100250.09
2022-09-10T05:46:50.847Z,100259.81
2022-09-10T05:49:19.186Z,100242.84
2022-09-10T05:51:48.769Z,100240.63
2022-09-10T05:54:19.196Z,100247.72
2022-09-10T05:56:48.789Z,100249.00
2022-09-10T05:59:18.137Z,100253.19
2022-09-10T06:01:53.410Z,100256.53
2022-09-10T06:04:24.246Z,100262.34
2022-09-10T06:06:54.420Z,100268.38
2022-09-10T06:09:23.359Z,100269.94
2022-09-10T06:12:00.428Z,100257.50
2022-09-10T06:14:30.334Z,100258.69
2022-09-10T06:16:59.322Z,100267.09
2022-09-10T06:19:31.748Z,100271.50
2022-09-10T06:22:00.191Z,100273.00
2022-09-10T06:24:29.741Z,100271.06
2022-09-10T06:26:58.804Z,100274.50
2022-09-10T06:29:49.943Z,100279.88
2022-09-10T06:32:39.741Z,100285.41
2022-09-10T06:35:09.769Z,100287.50
2022-09-10T06:37:38.646Z,100282.28
2022-09-10T06:40:10.141Z,100283.88
2022-09-10T06:42:39.267Z,100288.88
2022-09-10T06:45:28.431Z,100288.88
2022-09-10T06:48:47.609Z,100282.38
2022-09-10T06:51:17.760Z,100290.34
2022-09-10T06:53:46.982Z,100293.69
2022-09-10T06:56:18.427Z,100275.47
2022-09-10T06:58:46.853Z,100290.13
2022-09-10T07:01:19.610Z,100306.97
2022-09-10T07:03:57.891Z,100310.84
2022-09-10T07:06:35.967Z,100297.69
2022-09-10T07:09:11.362Z,100311.28
2022-09-10T07:11:58.345Z,100313.00
2022-09-10T07:14:29.642Z,100317.31
2022-09-10T07:17:02.467Z,100314.19
2022-09-10T07:19:33.421Z,100303.94
2022-09-10T07:22:01.793Z,100318.59
2022-09-10T07:24:33.724Z,100324.41
2022-09-10T07:27:11.417Z,100330.44
2022-09-10T07:29:42.890Z,100321.25
2022-09-10T07:32:27.653Z,100318.84
2022-09-10T07:35:10.666Z,100329.28
2022-09-10T07:37:40.217Z,100323.47
2022-09-10T07:40:11.887Z,100331.84
2022-09-10T07:42:40.357Z,100333.97
2022-09-10T07:45:16.219Z,100319.38
2022-09-10T07:47:44.771Z,100324.44
2022-09-10T07:50:14.943Z,100313.72
2022-09-10T07:52:43.067Z,100326.38
2022-09-10T07:55:13.269Z,100331.31
2022-09-10T07:57:42.161Z,100339.91
2022-09-10T08:00:18.422Z,100337.22
2022-09-10T08:02:53.753Z,100319.78
2022-09-10T08:05:24.207Z,100347.31
2022-09-10T08:07:57.518Z,100339.84
2022-09-10T08:10:28.033Z,100342.44
2022-09-10T08:12:59.596Z,100345.66
2022-09-10T08:15:27.828Z,100338.31
2022-09-10T08:17:58.858Z,100327.50
2022-09-10T08:20:27.349Z,100347.16
2022-09-10T08:22:57.404Z,100341.66
2022-09-10T08:25:29.154Z,100339.38
2022-09-10T08:27:59.156Z,100348.00
2022-09-10T08:30:30.431Z,100349.53
2022-09-10T08:32:58.758Z,100349.47
2022-09-10T08:35:27.545Z,100350.13
2022-09-10T08:37:55.533Z,100354.81
2022-09-10T08:40:23.668Z,100358.88
2022-09-10T08:42:52.914Z,100343.28
2022-09-10T08:45:27.550Z,100356.94
2022-09-10T08:48:16.628Z,100349.03
2022-09-10T08:50:55.785Z,100357.06
2022-09-10T08:53:54.270Z,100348.56
2022-09-10T08:56:24.601Z,100373.94
2022-09-10T08:59:21.610Z,100364.69
2022-09-10T09:01:56.970Z,100378.59
2022-09-10T09:05:06.475Z,100379.31
2022-09-10T09:07:40.252Z,100360.25
2022-09-10T09:10:46.607Z,100381.47
2022-09-10T09:13:35.343Z,100375.94
2022-09-10T09:16:31.138Z,100364.25
2022-09-10T09:19:39.002Z,100375.28
2022-09-10T09:22:23.561Z,100374.16
2022-09-10T09:25:07.795Z,100374.66
2022-09-10T09:27:41.451Z,100379.81
2022-09-10T09:30:24.109Z,100368.91
2022-09-10T09:32:54.857Z,100368.16
2022-09-10T09:35:38.988Z,100379.63
2022-09-10T09:38:07.847Z,100381.16
2022-09-10T09:40:52.575Z,100370.78
2022-09-10T09:43:43.544Z,100382.19
2022-09-10T09:46:21.037Z,100376.38
2022-09-10T09:48:56.267Z,100372.81
2022-09-10T09:51:30.982Z,100356.38
2022-09-10T09:54:39.179Z,100368.25
2022-09-10T09:56:54.601Z,100361.47
2022-09-10T09:59:35.010Z,100356.91
2022-09-10T10:02:29.170Z,100365.75
2022-09-10T10:05:24.026Z,100364.91
2022-09-10T10:07:52.683Z,100351.03
2022-09-10T10:10:27.457Z,100354.06
2022-09-10T10:12:57.115Z,100357.78
2022-09-10T10:15:41.852Z,100349.75
2022-09-10T10:18:36.776Z,100350.88
2022-09-10T10:21:15.120Z,100357.78
2022-09-10T10:23:43.857Z,100343.59
2022-09-10T10:26:38.406Z,100341.09
2022-09-10T10:29:18.450Z,100342.81
2022-09-10T10:31:49.755Z,100346.38
2022-09-10T10:35:19.192Z,100345.69
2022-09-10T10:38:08.281Z,100353.53
2022-09-10T10:41:03.730Z,100334.09
2022-09-10T10:43:42.021Z,100338.03
2022-09-10T10:46:21.644Z,100346.31
2022-09-10T10:49:38.082Z,100345.00
2022-09-10T10:52:26.635Z,100340.75
2022-09-10T10:55:14.406Z,100339.25
2022-09-10T10:58:06.490Z,100338.47
2022-09-10T11:00:53.473Z,100334.84
2022-09-10T11:03:53.192Z,100341.84
2022-09-10T11:06:27.292Z,100339.97
2022-09-10T11:09:21.660Z,100329.13
2022-09-10T11:12:03.367Z,100333.91
2022-09-10T11:15:02.653Z,100322.19
2022-09-10T11:17:51.965Z,100329.34
2022-09-10T11:20:36.249Z,100323.78
2022-09-10T11:23:34.405Z,100323.78
2022-09-10T11:26:18.371Z,100334.38
2022-09-10T11:29:36.368Z,100329.66
2022-09-10T11:32:36.707Z,100320.41
2022-09-10T11:35:19.919Z,100312.44
2022-09-10T11:38:10.534Z,100320.63
2022-09-10T11:41:19.278Z,100317.91
2022-09-10T11:44:29.213Z,100321.59
2022-09-10T11:47:11.556Z,100314.63
2022-09-10T11:50:33.838Z,100322.47
2022-09-10T11:53:07.964Z,100310.75
2022-09-10T11:55:42.334Z,100308.38
2022-09-10T11:58:49.448Z,100313.25
2022-09-10T12:02:08.303Z,100315.69
2022-09-10T12:05:28.731Z,100314.69
2022-09-10T12:08:24.829Z,100313.13
2022-09-10T12:11:55.334Z,100315.84
2022-09-10T12:14:25.754Z,100304.53
2022-09-10T12:17:27.235Z,100311.47
2022-09-10T12:19:57.164Z,100320.81
2022-09-10T12:22:39.935Z,100298.28
2022-09-10T12:25:31.659Z,100301.63
2022-09-10T12:28:43.648Z,100313.50
2022-09-10T12:32:29.152Z,100310.00
2022-09-10T12:35:35.771Z,100304.34
2022-09-10T12:39:03.600Z,100320.84
2022-09-10T12:41:31.382Z,100322.50
2022-09-10T12:44:01.508Z,100322.94
2022-09-10T12:46:32.107Z,100321.22
2022-09-10T12:49:13.391Z,100318.50
2022-09-10T12:51:49.962Z,100325.78
2022-09-10T12:54:41.065Z,100330.97
2022-09-10T12:57:58.854Z,100327.66
2022-09-10T13:00:56.397Z,100322.81
2022-09-10T13:03:30.307Z,100315.53
2022-09-10T13:06:04.276Z,100320.69
2022-09-10T13:08:43.928Z,100310.69
2022-09-10T13:11:21.241Z,100311.97
2022-09-10T13:13:49.014Z,100303.38
2022-09-10T13:16:28.311Z,100308.41
2022-09-10T13:19:14.620Z,100315.81
2022-09-10T13:21:45.484Z,100306.38
2022-09-10T13:24:34.357Z,100307.53
2022-09-10T13:27:41.933Z,100308.34
2022-09-10T13:30:23.131Z,100321.47
2022-09-10T13:33:11.643Z,100333.41
2022-09-10T13:35:49.424Z,100333.91
2022-09-10T13:39:03.585Z,100332.81
2022-09-10T13:42:26.215Z,100340.50
2022-09-10T13:45:27.081Z,100337.94
2022-09-10T13:48:21.566Z,100340.66
2022-09-10T13:50:58.431Z,100336.81
2022-09-10T13:53:32.719Z,100329.53
2022-09-10T13:56:12.371Z,100324.22
2022-09-10T13:58:56.841Z,100323.09
2022-09-10T14:01:55.234Z,100324.81
2022-09-10T14:04:29.932Z,100328.00
2022-09-10T14:07:17.633Z,100323.56
2022-09-10T14:09:50.548Z,100313.56
2022-09-10T14:12:23.548Z,100326.47
2022-09-10T14:14:57.187Z,100318.44
2022-09-10T14:17:43.726Z,100318.59
2022-09-10T14:20:25.877Z,100322.56
2022-09-10T14:23:14.647Z,100316.72
2022-09-10T14:25:45.504Z,100315.63
2022-09-10T14:28:23.743Z,100307.53
2022-09-10T14:31:14.163Z,100309.53
2022-09-10T14:33:43.517Z,100298.69
2022-09-10T14:36:23.601Z,100302.84
2022-09-10T14:38:58.944Z,100292.41
2022-09-10T14:41:31.551Z,100295.84
2022-09-10T14:44:22.296Z,100303.13
2022-09-10T14:47:00.223Z,100295.38
2022-09-10T14:49:41.527Z,100277.53
2022-09-10T14:52:11.988Z,100301.16
2022-09-10T14:54:40.388Z,100296.97
2022-09-10T14:57:14.934Z,100306.13
2022-09-10T14:59:48.966Z,100314.38
2022-09-10T15:02:31.236Z,100310.81
2022-09-10T15:05:01.073Z,100311.22
2022-09-10T15:07:31.901Z,100315.63
2022-09-10T15:10:01.671Z,100311.59
2022-09-10T15:12:32.338Z,100298.91
2022-09-10T15:15:01.762Z,100307.19
2022-09-10T15:17:29.983Z,100313.75
2022-09-10T15:19:58.058Z,100291.38
2022-09-10T15:22:30.146Z,100302.22
2022-09-10T15:25:09.494Z,100312.22
2022-09-10T15:27:39.046Z,100311.00
2022-09-10T15:30:08.002Z,100303.00
2022-09-10T15:32:36.042Z,100305.31
2022-09-10T15:35:05.524Z,100294.63
2022-09-10T15:37:34.044Z,100311.22
2022-09-10T15:40:04.438Z,100299.66
2022-09-10T15:42:35.033Z,100314.41
2022-09-10T15:45:02.843Z,100304.31
2022-09-10T15:47:33.903Z,100314.38
2022-09-10T15:50:05.138Z,100301.94
2022-09-10T15:52:33.303Z,100302.56
2022-09-10T15:55:01.429Z,100294.28
2022-09-10T15:57:34.032Z,100317.22
2022-09-10T16:00:05.240Z,100308.94
2022-09-10T16:02:34.196Z,100307.78
2022-09-10T16:05:02.533Z,100308.34
2022-09-10T16:07:30.837Z,100309.59
2022-09-10T16:09:58.825Z,100309.16
2022-09-10T16:12:27.431Z,100304.59
2022-09-10T16:14:55.492Z,100311.00
2022-09-10T16:17:24.810Z,100304.47
2022-09-10T16:19:54.620Z,100297.59
2022-09-10T16:22:22.519Z,100312.84
2022-09-10T16:24:50.919Z,100309.84
2022-09-10T16:27:19.871Z,100310.28
2022-09-10T16:29:48.529Z,100327.56
2022-09-10T16:32:18.194Z,100330.66
2022-09-10T16:34:46.281Z,100308.50
2022-09-10T16:37:14.269Z,100317.59
2022-09-10T16:39:42.502Z,100324.63
2022-09-10T16:42:10.969Z,100320.47
2022-09-10T16:44:41.644Z,100316.03
2022-09-10T16:47:09.622Z,100323.47
2022-09-10T16:49:38.658Z,100332.09
2022-09-10T16:52:06.892Z,100326.59
2022-09-10T16:54:35.274Z,100333.63
2022-09-10T16:57:04.071Z,100321.69
2022-09-10T16:59:32.347Z,100339.94
2022-09-10T17:02:01.198Z,100338.19
2022-09-10T17:04:29.615Z,100348.47
2022-09-10T17:06:58.406Z,100337.16
2022-09-10T17:09:28.183Z,100351.56
2022-09-10T17:11:56.418Z,100361.63
2022-09-10T17:14:24.673Z,100338.59
2022-09-10T17:16:53.773Z,100348.97
2022-09-10T17:19:24.655Z,100357.09
2022-09-10T17:21:56.087Z,100353.44
2022-09-10T17:24:25.747Z,100349.41
2022-09-10T17:26:55.774Z,100355.41
2022-09-10T17:29:26.191Z,100351.00
2022-09-10T17:31:58.300Z,100349.50
2022-09-10T17:34:27.287Z,100335.50
2022-09-10T17:36:56.231Z,100345.59
2022-09-10T17:39:28.199Z,100361.22
2022-09-10T17:41:58.951Z,100352.28
2022-09-10T17:44:30.506Z,100342.81
2022-09-10T17:46:58.825Z,100339.09
2022-09-10T17:49:27.141Z,100360.41
2022-09-10T17:51:58.048Z,100353.34
2022-09-10T17:54:26.699Z,100360.25
2022-09-10T17:56:54.929Z,100345.75
2022-09-10T17:59:24.949Z,100369.31
2022-09-10T18:01:53.048Z,100371.66
2022-09-10T18:04:22.026Z,100373.66
2022-09-10T18:06:52.545Z,100377.44
2022-09-10T18:09:22.198Z,100369.94
2022-09-10T18:11:50.499Z,100376.31
2022-09-10T18:14:21.928Z,100363.91
2022-09-10T18:16:51.745Z,100372.84
2022-09-10T18:19:20.514Z,100383.69
2022-09-10T18:21:49.747Z,100375.44
2022-09-10T18:24:22.833Z,100373.38
2022-09-10T18:26:57.504Z,100376.94
2022-09-10T18:29:45.652Z,100381.22
2022-09-10T18:32:34.587Z,100390.06
2022-09-10T18:35:03.046Z,100383.19
2022-09-10T18:37:31.125Z,100392.91
2022-09-10T18:40:00.417Z,100394.75
2022-09-10T18:42:28.606Z,100389.47
2022-09-10T18:44:58.720Z,100391.53
2022-09-10T18:47:44.056Z,100393.25
2022-09-10T18:50:14.002Z,100395.84
2022-09-10T18:52:42.151Z,100395.09
2022-09-10T18:55:11.114Z,100398.66
2022-09-10T18:57:41.977Z,100397.78
2022-09-10T19:00:11.411Z,100404.53
2022-09-10T19:02:39.987Z,100401.97
2022-09-10T19:05:12.255Z,100405.75
2022-09-10T19:07:42.051Z,100397.91
2022-09-10T19:10:10.462Z,100416.91
2022-09-10T19:12:39.413Z,100404.38
2022-09-10T19:15:10.882Z,100400.59
2022-09-10T19:17:39.907Z,100405.25
2022-09-10T19:20:10.116Z,100400.19
2022-09-10T19:22:41.139Z,100411.00
2022-09-10T19:25:09.838Z,100402.63
2022-09-10T19:27:39.141Z,100405.09
2022-09-10T19:30:08.163Z,100386.84
2022-09-10T19:32:36.343Z,100416.66
2022-09-10T19:35:06.379Z,100406.94
2022-09-10T19:37:36.024Z,100410.09
2022-09-10T19:40:04.341Z,100419.91
2022-09-10T19:42:32.343Z,100418.19
2022-09-10T19:45:01.340Z,100398.59
2022-09-10T19:47:29.771Z,100411.41
2022-09-10T19:49:59.219Z,100403.88
2022-09-10T19:52:29.011Z,100408.28
2022-09-10T19:54:57.942Z,100425.50
2022-09-10T19:57:26.523Z,100401.25
2022-09-10T19:59:55.745Z,100432.88
2022-09-10T20:02:25.121Z,100422.41
2022-09-10T20:04:53.786Z,100412.91
2022-09-10T20:07:21.831Z,100430.38
2022-09-10T20:09:49.832Z,100430.38
2022-09-10T20:12:17.996Z,100432.22
2022-09-10T20:14:45.924Z,100419.91
2022-09-10T20:17:16.296Z,100407.53
2022-09-10T20:19:44.428Z,100428.78
2022-09-10T20:22:14.787Z,100419.19
2022-09-10T20:24:43.089Z,100432.44
2022-09-10T20:27:11.550Z,100433.44
2022-09-10T20:29:41.430Z,100431.59
2022-09-10T20:32:09.511Z,100441.31
2022-09-10T20:34:37.377Z,100445.94
2022-09-10T20:37:05.252Z,100446.19
2022-09-10T20:39:34.728Z,100449.75
2022-09-10T20:42:03.332Z,100461.63
2022-09-10T20:44:33.082Z,100463.59
2022-09-10T20:47:01.046Z,100460.59
2022-09-10T20:49:29.219Z,100459.09
2022-09-10T20:51:57.197Z,100473.25
2022-09-10T20:54:25.678Z,100461.38
2022-09-10T20:56:53.584Z,100472.97
2022-09-10T20:59:24.380Z,100451.91
2022-09-10T21:01:56.587Z,100453.75
2022-09-10T21:04:26.753Z,100460.47
2022-09-10T21:06:55.321Z,100470.41
2022-09-10T21:09:23.279Z,100472.34
2022-09-10T21:11:51.629Z,100469.22
2022-09-10T21:14:19.537Z,100472.09
2022-09-10T21:16:47.736Z,100464.91
2022-09-10T21:19:17.425Z,100468.88
2022-09-10T21:21:46.329Z,100468.88
2022-09-10T21:24:22.451Z,100456.16
2022-09-10T21:26:50.975Z,100469.44
2022-09-10T21:29:21.133Z,100459.59
2022-09-10T21:31:54.720Z,100461.34
2022-09-10T21:34:23.581Z,100461.56
2022-09-10T21:36:51.782Z,100465.44
2022-09-10T21:39:19.913Z,100474.63
2022-09-10T21:41:50.745Z,100469.97
2022-09-10T21:44:22.286Z,100471.28
2022-09-10T21:46:51.975Z,100478.41
2022-09-10T21:49:21.052Z,100477.66
2022-09-10T21:51:49.267Z,100467.84
2022-09-10T21:54:20.894Z,100477.31
2022-09-10T21:56:52.273Z,100463.19
2022-09-10T21:59:21.713Z,100469.66
2022-09-10T22:01:49.991Z,100473.66
2022-09-10T22:04:22.515Z,100467.19
2022-09-10T22:06:52.887Z,100466.22
2022-09-10T22:09:21.540Z,100473.31
2022-09-10T22:11:54.061Z,100461.13
2022-09-10T22:14:24.219Z,100467.06
2022-09-10T22:16:53.592Z,100465.34
2022-09-10T22:19:27.232Z,100467.72
2022-09-10T22:21:57.123Z,100468.91
2022-09-10T22:24:26.177Z,100457.69
2022-09-10T22:26:54.815Z,100469.22
2022-09-10T22:29:24.946Z,100466.41
2022-09-10T22:31:52.825Z,100467.84
2022-09-10T22:34:20.842Z,100473.97
2022-09-10T22:36:49.757Z,100476.66
2022-09-10T22:39:20.772Z,100481.97
2022-09-10T22:41:51.209Z,100476.78
2022-09-10T22:44:20.006Z,100447.88
2022-09-10T22:46:50.144Z,100470.66
2022-09-10T22:49:18.308Z,100452.16
2022-09-10T22:51:47.270Z,100464.28
2022-09-10T22:54:18.829Z,100461.03
2022-09-10T22:56:46.773Z,100467.09
2022-09-10T22:59:16.101Z,100466.44
2022-09-10T23:01:48.856Z,100456.81
2022-09-10T23:04:17.502Z,100476.13
2022-09-10T23:06:45.455Z,100463.19
2022-09-10T23:09:17.865Z,100468.47
2022-09-10T23:11:46.190Z,100473.44
2022-09-10T23:14:19.050Z,100476.38
2022-09-10T23:16:50.800Z,100475.72
2022-09-10T23:19:24.894Z,100465.13
2022-09-10T23:21:54.987Z,100480.03
2022-09-10T23:24:24.954Z,100487.47
2022-09-10T23:26:53.847Z,100486.38
2022-09-10T23:29:23.981Z,100484.53
2022-09-10T23:31:56.031Z,100492.75
2022-09-10T23:34:24.435Z,100492.88
2022-09-10T23:36:52.647Z,100487.34
2022-09-10T23:39:23.831Z,100488.53
2022-09-10T23:41:56.843Z,100493.72
2022-09-10T23:44:25.684Z,100484.31
2022-09-10T23:46:53.799Z,100499.13
2022-09-10T23:49:24.543Z,100495.44
2022-09-10T23:51:53.072Z,100494.78
2022-09-10T23:54:21.378Z,100497.47
2022-09-10T23:56:49.446Z,100495.56
2022-09-10T23:59:17.965Z,100470.28
